| time (UTC) | temp F | wind direction | speed knots | gust knots | rain 1hr in | rain 24hr in | rain mn in | humidity % | barometer mb |
| 20260502160654 | 52 | 200 | 0.0 | 2.6 | 0.04 | 0.24 | 0.25 | 93 | 1012.6 |
| 20260502160125 | 52 | 200 | 0.9 | 2.6 | 0.03 | 0.24 | 0.24 | 92 | 1012.7 |
| 20260502152016 | 52 | 202 | 0.9 | 5.2 | 0.06 | 0.21 | 0.21 | 91 | 1013.2 |
| 20260502151555 | 52 | 154 | 0.0 | 4.3 | 0.06 | 0.21 | 0.21 | 91 | 1013.2 |
| 20260502151510 | 52 | 131 | 1.7 | 4.3 | 0.07 | 0.21 | 0.21 | 91 | 1013.3 |
| 20260502150942 | 53 | 128 | 2.6 | 4.3 | 0.08 | 0.21 | 0.21 | 91 | 1013.4 |
| 20260502150701 | 53 | 128 | 1.7 | 4.3 | 0.09 | 0.20 | 0.20 | 91 | 1013.4 |
| 20260502150110 | 53 | 128 | 2.6 | 4.3 | 0.09 | 0.20 | 0.20 | 91 | 1013.3 |
| 20260502123436 | 55 | 128 | 0.9 | 2.6 | 0.01 | 0.01 | 0.01 | 86 | 1014.9 |
| 20260502123136 | 55 | 130 | 0.9 | 4.3 | 0.01 | 0.01 | 0.01 | 86 | 1015.0 |
| 20260502123104 | 55 | 130 | 0.0 | 2.6 | 0.01 | 0.01 | 0.01 | 86 | 1014.8 |
| 20260502122352 | 55 | 132 | 0.9 | 4.3 | 0.01 | 0.01 | 0.01 | 86 | 1015.2 |
| 20260502122318 | 56 | 133 | 0.9 | 4.3 | 0.01 | 0.01 | 0.01 | 86 | 1015.4 |
| 20260502121559 | 55 | 133 | 0.0 | 4.3 | 0.01 | 0.01 | 0.01 | 86 | 1015.3 |
| 20260502121552 | 56 | 133 | 0.0 | 4.3 | 0.00 | 0.00 | 0.00 | 86 | 1015.4 |
| 20260502120827 | 56 | 133 | 0.9 | 2.6 | 0.00 | 0.00 | 0.00 | 86 | 1015.6 |
| 20260502120336 | 56 | 133 | 0.9 | 4.3 | 0.00 | 0.00 | 0.00 | 85 | 1015.6 |
| 20260502120104 | 56 | 133 | 0.9 | 3.5 | 0.00 | 0.00 | 0.00 | 86 | 1015.5 |
| 20260502115807 | 56 | 133 | 1.7 | 4.3 | 0.00 | 0.00 | 0.00 | 85 | 1015.7 |
| 20260502115306 | 56 | 133 | 0.9 | 4.3 | 0.00 | 0.00 | 0.00 | 85 | 1015.7 |
| 20260502114747 | 56 | 132 | 1.7 | 4.3 | 0.00 | 0.00 | 0.00 | 86 | 1015.8 |
| 20260502114501 | 56 | 131 | 0.9 | 4.3 | 0.00 | 0.00 | 0.00 | 86 | 1015.7 |
| 20260502114221 | 56 | 131 | 1.7 | 4.3 | 0.00 | 0.00 | 0.00 | 85 | 1015.8 |
| 20260502113721 | 56 | 131 | 1.7 | 6.1 | 0.00 | 0.00 | 0.00 | 85 | 1015.8 |
| 20260502113152 | 56 | 116 | 0.9 | 6.1 | 0.00 | 0.00 | 0.00 | 85 | 1016.0 |
| 20260502113035 | 56 | 112 | 0.0 | 4.3 | 0.00 | 0.00 | 0.00 | 85 | 1015.8 |
| 20260502112846 | 56 | 112 | 2.6 | 6.1 | 0.00 | 0.00 | 0.00 | 85 | 1016.0 |
| 20260502112102 | 56 | 112 | 2.6 | 6.1 | 0.00 | 0.00 | 0.00 | 84 | 1016.0 |
| 20260502111603 | 56 | 128 | 1.7 | 6.1 | 0.00 | 0.00 | 0.00 | 83 | 1016.0 |
| 20260502111545 | 56 | 128 | 1.7 | 6.1 | 0.00 | 0.00 | 0.00 | 83 | 1015.9 |
| 20260502111058 | 57 | 113 | 0.9 | 6.1 | 0.00 | 0.00 | 0.00 | 83 | 1016.0 |
| 20260502110559 | 57 | 132 | 2.6 | 6.1 | 0.00 | 0.00 | 0.00 | 83 | 1016.1 |
| 20260502110257 | 57 | 121 | 2.6 | 6.1 | 0.00 | 0.00 | 0.00 | 82 | 1016.2 |
| 20260502110026 | 57 | 133 | 2.6 | 6.1 | 0.00 | 0.00 | 0.00 | 82 | 1016.0 |
| 20260502105525 | 58 | 133 | 2.6 | 6.1 | 0.00 | 0.00 | 0.00 | 81 | 1016.2 |
| 20260502105020 | 59 | 119 | 2.6 | 6.1 | 0.00 | 0.00 | 0.00 | 81 | 1016.3 |
| 20260502104516 | 59 | 108 | 1.7 | 5.2 | 0.00 | 0.00 | 0.00 | 80 | 1016.4 |
| 20260502104015 | 60 | 143 | 0.9 | 4.3 | 0.00 | 0.00 | 0.00 | 81 | 1016.4 |
| 20260502103510 | 60 | 143 | 0.0 | 4.3 | 0.00 | 0.00 | 0.00 | 82 | 1016.4 |
| 20260502103026 | 59 | 121 | 0.0 | 2.6 | 0.00 | 0.00 | 0.00 | 83 | 1016.4 |
| 20260502102945 | 59 | 121 | 0.0 | 5.2 | 0.00 | 0.00 | 0.00 | 82 | 1016.4 |
| 20260502102419 | 58 | 121 | 0.9 | 5.2 | 0.00 | 0.00 | 0.00 | 83 | 1016.5 |
| 20260502101853 | 58 | 121 | 1.7 | 5.2 | 0.00 | 0.00 | 0.00 | 83 | 1016.6 |
| 20260502101605 | 57 | 121 | 2.6 | 5.2 | 0.00 | 0.00 | 0.00 | 83 | 1016.5 |
| 20260502101324 | 58 | 121 | 2.6 | 7.0 | 0.00 | 0.00 | 0.00 | 83 | 1016.7 |
| 20260502100820 | 58 | 122 | 2.6 | 7.0 | 0.00 | 0.00 | 0.00 | 82 | 1016.8 |
| 20260502100254 | 58 | 105 | 2.6 | 7.0 | 0.00 | 0.00 | 0.00 | 82 | 1016.9 |
| 20260502091531 | 59 | 116 | 1.7 | 5.2 | 0.00 | 0.00 | 0.00 | 76 | 1016.8 |
| 20260502091128 | 60 | 124 | 0.0 | 5.2 | 0.00 | 0.00 | 0.00 | 77 | 1017.0 |
| 20260502090603 | 60 | 123 | 0.0 | 0.0 | 0.00 | 0.00 | 0.00 | 78 | 1017.0 |
| 20260502090557 | 60 | 122 | 0.0 | 4.3 | 0.00 | 0.00 | 0.00 | 80 | 1017.1 |
| 20260502080106 | 55 | 156 | 0.0 | 0.0 | 0.00 | 0.00 | 0.00 | 93 | 1017.3 |
| 20260502071512 | 52 | 273 | 0.0 | 0.0 | 0.00 | 0.00 | 0.00 | 94 | 1017.8 |
| 20260502071229 | 52 | 273 | 0.0 | 0.0 | 0.00 | 0.00 | 0.00 | 94 | 1017.9 |
| 20260502070659 | 51 | 273 | 0.0 | 0.0 | 0.00 | 0.00 | 0.00 | 94 | 1018.0 |
| 20260502070158 | 51 | 273 | 0.0 | 0.0 | 0.00 | 0.00 | 0.00 | 94 | 1018.0 |
| 20260502070020 | 51 | 273 | 0.0 | 0.0 | 0.00 | 0.00 | 0.00 | 94 | 1017.8 |
| 20260502065630 | 51 | 273 | 0.0 | 0.0 | 0.00 | 0.00 | 0.00 | 94 | 1018.0 |
| 20260502065129 | 51 | 273 | 0.0 | 0.0 | 0.00 | 0.00 | 0.00 | 94 | 1018.0 |
| 20260502064620 | 51 | 273 | 0.0 | 0.0 | 0.00 | 0.00 | 0.00 | 94 | 1018.0 |
| 20260502064532 | 50 | 273 | 0.0 | 0.0 | 0.00 | 0.00 | 0.00 | 94 | 1017.8 |
| 20260502064343 | 51 | 273 | 0.0 | 0.0 | 0.00 | 0.00 | 0.00 | 93 | 1018.0 |
| 20260502063558 | 51 | 273 | 0.0 | 0.0 | 0.00 | 0.00 | 0.00 | 93 | 1017.9 |
| 20260502063058 | 51 | 271 | 0.0 | 0.0 | 0.00 | 0.00 | 0.00 | 93 | 1017.9 |
| 20260502063054 | 50 | 271 | 0.0 | 0.0 | 0.00 | 0.00 | 0.00 | 93 | 1017.8 |
| 20260502062533 | 51 | 271 | 0.0 | 0.0 | 0.00 | 0.00 | 0.00 | 93 | 1018.0 |
| 20260502062021 | 51 | 271 | 0.0 | 0.0 | 0.00 | 0.00 | 0.00 | 94 | 1018.0 |
| 20260502061742 | 50 | 271 | 0.0 | 0.0 | 0.00 | 0.00 | 0.00 | 94 | 1018.0 |
| 20260502061559 | 50 | 271 | 0.0 | 0.0 | 0.00 | 0.00 | 0.00 | 94 | 1017.9 |
| 20260502060951 | 50 | 271 | 0.0 | 0.0 | 0.00 | 0.00 | 0.00 | 94 | 1018.0 |
| 20260502060448 | 50 | 271 | 0.0 | 0.0 | 0.00 | 0.00 | 0.00 | 94 | 1018.1 |
| 20260502060100 | 49 | 271 | 0.0 | 0.0 | 0.00 | 0.00 | 0.00 | 94 | 1018.0 |
| 20260502055925 | 50 | 271 | 0.0 | 0.0 | 0.00 | 0.00 | 0.00 | 94 | 1018.1 |
| 20260502055356 | 49 | 271 | 0.0 | 0.0 | 0.00 | 0.00 | 0.00 | 94 | 1018.1 |
| 20260502054830 | 49 | 271 | 0.0 | 0.0 | 0.00 | 0.00 | 0.00 | 93 | 1018.2 |
| 20260502054519 | 49 | 271 | 0.0 | 0.0 | 0.00 | 0.00 | 0.00 | 93 | 1018.1 |
| 20260502054329 | 49 | 271 | 0.0 | 0.0 | 0.00 | 0.00 | 0.00 | 93 | 1018.2 |
| 20260502053759 | 49 | 271 | 0.0 | 0.0 | 0.00 | 0.00 | 0.00 | 94 | 1018.3 |
| 20260502053250 | 49 | 271 | 0.0 | 0.0 | 0.00 | 0.00 | 0.00 | 94 | 1018.3 |
| 20260502053003 | 49 | 271 | 0.0 | 0.0 | 0.00 | 0.00 | 0.00 | 94 | 1018.2 |
| 20260502052748 | 49 | 271 | 0.0 | 0.0 | 0.00 | 0.00 | 0.00 | 94 | 1018.3 |
| 20260502052251 | 49 | 271 | 0.0 | 0.0 | 0.00 | 0.00 | 0.00 | 94 | 1018.3 |
| 20260502051948 | 49 | 271 | 0.0 | 0.0 | 0.00 | 0.00 | 0.00 | 94 | 1018.3 |
| 20260502051527 | 48 | 271 | 0.0 | 0.0 | 0.00 | 0.00 | 0.00 | 94 | 1018.2 |
| 20260502051220 | 49 | 271 | 0.0 | 0.0 | 0.00 | 0.00 | 0.00 | 94 | 1018.3 |
| 20260502050715 | 49 | 271 | 0.0 | 0.0 | 0.00 | 0.00 | 0.00 | 94 | 1018.4 |
| 20260502050135 | 48 | 271 | 0.0 | 0.0 | 0.00 | 0.00 | 0.00 | 93 | 1018.4 |
| 20260502050011 | 48 | 271 | 0.0 | 0.0 | 0.00 | 0.00 | 0.00 | 93 | 1018.3 |
| 20260502045610 | 48 | 271 | 0.0 | 0.0 | 0.00 | 0.00 | 0.00 | 93 | 1018.5 |
| 20260502045311 | 48 | 271 | 0.0 | 0.0 | 0.00 | 0.00 | 0.00 | 93 | 1018.4 |
| 20260502045300 | 48 | 271 | 0.0 | 0.0 | 0.00 | 0.00 | 0.00 | 93 | 1018.5 |
| 20260502044539 | 47 | 271 | 0.0 | 0.0 | 0.00 | 0.00 | 0.00 | 93 | 1018.3 |
| 20260502044049 | 48 | 271 | 0.0 | 0.0 | 0.00 | 0.00 | 0.00 | 93 | 1018.4 |
| 20260502043752 | 48 | 271 | 0.0 | 0.0 | 0.00 | 0.00 | 0.00 | 93 | 1018.4 |
| 20260502043055 | 47 | 271 | 0.0 | 0.0 | 0.00 | 0.00 | 0.00 | 93 | 1018.3 |
| 20260502043012 | 48 | 271 | 0.0 | 0.0 | 0.00 | 0.00 | 0.00 | 93 | 1018.4 |
| 20260502042713 | 47 | 271 | 0.0 | 0.0 | 0.00 | 0.00 | 0.00 | 93 | 1018.4 |
| 20260502041926 | 47 | 271 | 0.0 | 0.0 | 0.00 | 0.00 | 0.00 | 93 | 1018.4 |
| 20260502041554 | 47 | 271 | 0.0 | 0.0 | 0.00 | 0.00 | 0.00 | 93 | 1018.4 |
| 20260502041404 | 47 | 271 | 0.0 | 0.0 | 0.00 | 0.00 | 0.00 | 93 | 1018.4 |
| 20260502040847 | 47 | 271 | 0.0 | 0.0 | 0.00 | 0.00 | 0.00 | 92 | 1018.4 |
| 20260502040333 | 47 | 271 | 0.0 | 0.0 | 0.00 | 0.00 | 0.00 | 92 | 1018.5 |
| 20260502040017 | 47 | 271 | 0.0 | 0.0 | 0.00 | 0.00 | 0.00 | 92 | 1018.3 |
| 20260502035830 | 48 | 271 | 0.0 | 0.0 | 0.00 | 0.00 | 0.00 | 92 | 1018.4 |
| 20260502035329 | 48 | 271 | 0.0 | 0.0 | 0.00 | 0.00 | 0.00 | 92 | 1018.3 |
| 20260502034832 | 48 | 271 | 0.0 | 0.0 | 0.00 | 0.00 | 0.00 | 92 | 1018.3 |
| 20260502034544 | 48 | 271 | 0.0 | 0.0 | 0.00 | 0.00 | 0.00 | 92 | 1018.2 |
| 20260502034309 | 48 | 271 | 0.0 | 0.0 | 0.00 | 0.00 | 0.00 | 92 | 1018.3 |
| 20260502033801 | 48 | 271 | 0.0 | 0.0 | 0.00 | 0.00 | 0.00 | 92 | 1018.4 |
| 20260502033527 | 49 | 271 | 0.0 | 0.0 | 0.00 | 0.00 | 0.00 | 93 | 1018.4 |
| 20260502033028 | 48 | 271 | 0.0 | 0.0 | 0.00 | 0.00 | 0.00 | 93 | 1018.3 |
| 20260502032743 | 49 | 271 | 0.0 | 0.0 | 0.00 | 0.00 | 0.00 | 93 | 1018.4 |
| 20260502032233 | 49 | 271 | 0.0 | 0.0 | 0.00 | 0.00 | 0.00 | 93 | 1018.4 |
| 20260502031732 | 49 | 271 | 0.0 | 0.0 | 0.00 | 0.00 | 0.00 | 93 | 1018.5 |
| 20260502031559 | 48 | 271 | 0.0 | 0.0 | 0.00 | 0.00 | 0.00 | 93 | 1018.3 |
| 20260502031430 | 49 | 271 | 0.0 | 0.0 | 0.00 | 0.00 | 0.00 | 93 | 1018.5 |
| 20260502030644 | 49 | 271 | 0.0 | 0.0 | 0.00 | 0.00 | 0.00 | 93 | 1018.6 |
| 20260502030143 | 49 | 271 | 0.0 | 0.0 | 0.00 | 0.00 | 0.00 | 93 | 1018.7 |
| 20260502030018 | 48 | 271 | 0.0 | 0.0 | 0.00 | 0.00 | 0.00 | 93 | 1018.7 |
| 20260502025637 | 49 | 270 | 0.0 | 0.0 | 0.00 | 0.00 | 0.00 | 93 | 1018.7 |
| 20260502025135 | 49 | 270 | 0.0 | 0.0 | 0.00 | 0.00 | 0.00 | 93 | 1018.8 |
| 20260502024609 | 49 | 270 | 0.0 | 0.0 | 0.00 | 0.00 | 0.00 | 93 | 1018.8 |
| 20260502024547 | 48 | 270 | 0.0 | 0.0 | 0.00 | 0.00 | 0.00 | 93 | 1018.7 |
| 20260502024103 | 49 | 270 | 0.0 | 0.0 | 0.00 | 0.00 | 0.00 | 92 | 1018.9 |
| 20260502023528 | 49 | 270 | 0.0 | 0.0 | 0.00 | 0.00 | 0.00 | 92 | 1019.0 |
| 20260502023045 | 48 | 270 | 0.0 | 0.0 | 0.00 | 0.00 | 0.00 | 92 | 1019.0 |
| 20260502023015 | 49 | 270 | 0.0 | 0.0 | 0.00 | 0.00 | 0.00 | 92 | 1019.1 |
| 20260502022516 | 49 | 270 | 0.0 | 0.0 | 0.00 | 0.00 | 0.00 | 92 | 1019.1 |
| 20260502022017 | 49 | 270 | 0.0 | 0.0 | 0.00 | 0.00 | 0.00 | 92 | 1019.2 |
| 20260502021533 | 49 | 270 | 0.0 | 0.0 | 0.00 | 0.00 | 0.00 | 92 | 1019.1 |
| 20260502021449 | 49 | 270 | 0.0 | 0.0 | 0.00 | 0.00 | 0.00 | 92 | 1019.2 |
| 20260502020922 | 49 | 270 | 0.0 | 0.0 | 0.00 | 0.00 | 0.00 | 92 | 1019.2 |
| 20260502020356 | 49 | 270 | 0.0 | 0.0 | 0.00 | 0.00 | 0.00 | 92 | 1019.3 |
| 20260502020011 | 49 | 270 | 0.0 | 0.0 | 0.00 | 0.00 | 0.00 | 92 | 1019.2 |
| 20260502015839 | 49 | 270 | 0.0 | 0.0 | 0.00 | 0.00 | 0.00 | 92 | 1019.3 |
| 20260502015340 | 50 | 270 | 0.0 | 0.0 | 0.00 | 0.00 | 0.00 | 92 | 1019.3 |
| 20260502014842 | 50 | 270 | 0.0 | 0.0 | 0.00 | 0.00 | 0.00 | 92 | 1019.4 |
| 20260502014553 | 49 | 270 | 0.0 | 0.0 | 0.00 | 0.00 | 0.00 | 92 | 1019.3 |
| 20260502014325 | 50 | 270 | 0.0 | 0.0 | 0.00 | 0.00 | 0.00 | 92 | 1019.5 |
| 20260502013826 | 50 | 270 | 0.0 | 0.0 | 0.00 | 0.00 | 0.00 | 92 | 1019.5 |
| 20260502013543 | 50 | 270 | 0.0 | 0.0 | 0.00 | 0.00 | 0.00 | 92 | 1019.6 |
| 20260502013013 | 50 | 270 | 0.0 | 0.0 | 0.00 | 0.00 | 0.00 | 92 | 1019.5 |
| 20260502012822 | 50 | 270 | 0.0 | 0.0 | 0.00 | 0.00 | 0.00 | 92 | 1019.7 |
| 20260502012309 | 50 | 270 | 0.0 | 0.0 | 0.00 | 0.00 | 0.00 | 92 | 1019.7 |
| 20260502011814 | 50 | 270 | 0.0 | 0.0 | 0.00 | 0.00 | 0.00 | 92 | 1019.7 |
| 20260502011550 | 50 | 270 | 0.0 | 0.0 | 0.00 | 0.00 | 0.00 | 92 | 1019.6 |
| 20260502011301 | 50 | 270 | 0.0 | 0.0 | 0.00 | 0.00 | 0.00 | 92 | 1019.8 |
| 20260502011024 | 50 | 270 | 0.0 | 0.0 | 0.00 | 0.00 | 0.00 | 92 | 1019.9 |
| 20260502010257 | 50 | 270 | 0.0 | 0.0 | 0.00 | 0.00 | 0.00 | 92 | 1019.8 |
| 20260502010038 | 50 | 270 | 0.0 | 0.0 | 0.00 | 0.00 | 0.00 | 92 | 1019.7 |
| 20260502005757 | 50 | 271 | 0.0 | 0.0 | 0.00 | 0.00 | 0.00 | 92 | 1019.8 |
| 20260502005228 | 51 | 271 | 0.0 | 0.0 | 0.00 | 0.00 | 0.00 | 92 | 1019.8 |
| 20260502004711 | 51 | 271 | 0.0 | 0.0 | 0.00 | 0.00 | 0.00 | 92 | 1019.8 |
| 20260502004511 | 50 | 271 | 0.0 | 0.0 | 0.00 | 0.00 | 0.00 | 92 | 1019.7 |
| 20260502004210 | 51 | 271 | 0.0 | 0.0 | 0.00 | 0.00 | 0.00 | 92 | 1019.9 |
| 20260502003641 | 51 | 271 | 0.0 | 0.0 | 0.00 | 0.00 | 0.00 | 92 | 1019.9 |
| 20260502003140 | 51 | 271 | 0.0 | 0.0 | 0.00 | 0.00 | 0.00 | 92 | 1020.0 |
| 20260502003000 | 50 | 271 | 0.0 | 0.0 | 0.00 | 0.00 | 0.00 | 92 | 1019.9 |
| 20260502002830 | 51 | 271 | 0.0 | 0.0 | 0.00 | 0.00 | 0.00 | 92 | 1020.0 |
| 20260502002110 | 51 | 271 | 0.0 | 0.0 | 0.00 | 0.00 | 0.00 | 92 | 1020.0 |
| 20260502001544 | 51 | 271 | 0.0 | 0.0 | 0.00 | 0.00 | 0.00 | 92 | 1020.1 |
| 20260502001515 | 50 | 271 | 0.0 | 0.0 | 0.00 | 0.00 | 0.00 | 92 | 1020.0 |
| 20260502001018 | 51 | 271 | 0.0 | 0.0 | 0.00 | 0.00 | 0.00 | 92 | 1020.1 |
| 20260502000449 | 50 | 271 | 0.0 | 0.0 | 0.00 | 0.00 | 0.00 | 92 | 1020.2 |
| 20260502000019 | 50 | 271 | 0.0 | 0.0 | 0.00 | 0.00 | 0.00 | 92 | 1020.1 |
| 20260501235938 | 50 | 271 | 0.0 | 0.0 | 0.00 | 0.00 | 0.00 | 92 | 1020.2 |
| 20260501235425 | 50 | 271 | 0.0 | 0.0 | 0.00 | 0.00 | 0.00 | 92 | 1020.1 |
| 20260501234926 | 50 | 271 | 0.0 | 0.0 | 0.00 | 0.00 | 0.00 | 91 | 1020.2 |
| 20260501234554 | 50 | 271 | 0.0 | 0.0 | 0.00 | 0.00 | 0.00 | 91 | 1020.0 |
| 20260501234422 | 50 | 271 | 0.0 | 0.0 | 0.00 | 0.00 | 0.00 | 91 | 1020.2 |
| 20260501233856 | 51 | 271 | 0.0 | 0.9 | 0.00 | 0.00 | 0.00 | 91 | 1020.2 |
| 20260501233327 | 51 | 271 | 0.0 | 0.9 | 0.00 | 0.00 | 0.00 | 91 | 1020.2 |
| 20260501233017 | 50 | 271 | 0.0 | 0.9 | 0.00 | 0.00 | 0.00 | 91 | 1020.0 |
| 20260501232826 | 51 | 271 | 0.0 | 0.9 | 0.00 | 0.00 | 0.00 | 91 | 1020.1 |
| 20260501232522 | 51 | 271 | 0.0 | 0.9 | 0.00 | 0.00 | 0.00 | 91 | 1020.2 |
| 20260501232018 | 51 | 271 | 0.0 | 0.0 | 0.00 | 0.00 | 0.00 | 90 | 1020.1 |
| 20260501231506 | 50 | 271 | 0.0 | 0.9 | 0.00 | 0.00 | 0.00 | 90 | 1020.0 |
| 20260501231227 | 51 | 271 | 0.0 | 2.6 | 0.00 | 0.00 | 0.00 | 91 | 1020.1 |
| 20260501230726 | 51 | 271 | 0.0 | 2.6 | 0.00 | 0.00 | 0.00 | 91 | 1020.2 |
| 20260501230204 | 51 | 271 | 1.7 | 5.2 | 0.00 | 0.00 | 0.00 | 91 | 1020.2 |
| 20260501230041 | 51 | 271 | 0.0 | 5.2 | 0.00 | 0.00 | 0.00 | 91 | 1020.1 |
| 20260501225659 | 52 | 271 | 2.6 | 5.2 | 0.00 | 0.00 | 0.00 | 91 | 1020.3 |
| 20260501225159 | 52 | 271 | 4.3 | 5.2 | 0.00 | 0.00 | 0.00 | 91 | 1020.3 |
| 20260501224645 | 52 | 270 | 4.3 | 5.2 | 0.00 | 0.00 | 0.00 | 91 | 1020.2 |
| 20260501224548 | 51 | 270 | 3.5 | 5.2 | 0.00 | 0.00 | 0.00 | 91 | 1020.1 |
| 20260501224145 | 51 | 270 | 4.3 | 5.2 | 0.00 | 0.00 | 0.00 | 91 | 1020.2 |
| 20260501223645 | 51 | 275 | 4.3 | 5.2 | 0.00 | 0.00 | 0.00 | 91 | 1020.2 |
| 20260501223145 | 51 | 276 | 3.5 | 4.3 | 0.00 | 0.00 | 0.00 | 90 | 1020.2 |
| 20260501223034 | 51 | 276 | 2.6 | 4.3 | 0.00 | 0.00 | 0.00 | 90 | 1020.0 |
| 20260501222646 | 52 | 276 | 2.6 | 4.3 | 0.00 | 0.00 | 0.00 | 90 | 1020.2 |
| 20260501222132 | 52 | 276 | 1.7 | 4.3 | 0.00 | 0.00 | 0.00 | 91 | 1020.3 |
| 20260501221631 | 52 | 275 | 0.0 | 3.5 | 0.00 | 0.00 | 0.00 | 90 | 1020.3 |
| 20260501221502 | 51 | 227 | 0.0 | 0.0 | 0.00 | 0.00 | 0.00 | 90 | 1020.2 |
| 20260501221126 | 52 | 211 | 0.0 | 0.0 | 0.00 | 0.00 | 0.00 | 90 | 1020.5 |
| 20260501220626 | 52 | 211 | 0.0 | 0.0 | 0.00 | 0.00 | 0.00 | 90 | 1020.5 |
| 20260501220125 | 52 | 211 | 0.0 | 0.0 | 0.00 | 0.00 | 0.00 | 90 | 1020.6 |
| 20260501220057 | 52 | 211 | 0.0 | 0.0 | 0.00 | 0.00 | 0.00 | 90 | 1020.5 |
| 20260501215622 | 52 | 211 | 0.0 | 0.0 | 0.00 | 0.00 | 0.00 | 90 | 1020.6 |
| 20260501215117 | 52 | 211 | 0.0 | 0.0 | 0.00 | 0.00 | 0.00 | 90 | 1020.6 |
| 20260501214615 | 52 | 211 | 0.0 | 0.0 | 0.00 | 0.00 | 0.00 | 90 | 1020.6 |
| 20260501214556 | 52 | 211 | 0.0 | 0.0 | 0.00 | 0.00 | 0.00 | 90 | 1020.4 |
| 20260501214111 | 52 | 211 | 0.0 | 0.0 | 0.00 | 0.00 | 0.00 | 90 | 1020.6 |
| 20260501213612 | 52 | 211 | 0.0 | 0.0 | 0.00 | 0.00 | 0.00 | 90 | 1020.5 |
| 20260501213110 | 52 | 211 | 0.0 | 0.0 | 0.00 | 0.00 | 0.00 | 89 | 1020.4 |
| 20260501213044 | 52 | 211 | 0.0 | 0.0 | 0.00 | 0.00 | 0.00 | 89 | 1020.3 |
| 20260501212604 | 52 | 211 | 0.0 | 0.0 | 0.00 | 0.00 | 0.00 | 89 | 1020.4 |
| 20260501212040 | 53 | 181 | 0.0 | 0.0 | 0.00 | 0.00 | 0.00 | 89 | 1020.4 |
| 20260501211612 | 52 | 152 | 0.0 | 0.0 | 0.00 | 0.00 | 0.00 | 89 | 1020.2 |
| 20260501211523 | 53 | 150 | 0.0 | 0.0 | 0.00 | 0.00 | 0.00 | 89 | 1020.3 |
| 20260501210958 | 53 | 150 | 0.0 | 0.0 | 0.00 | 0.00 | 0.00 | 88 | 1020.4 |
| 20260501210936 | 53 | 150 | 0.0 | 0.0 | 0.00 | 0.00 | 0.00 | 88 | 1020.3 |
| 20260501210143 | 53 | 150 | 0.0 | 0.0 | 0.00 | 0.00 | 0.00 | 88 | 1020.3 |
| 20260501210001 | 53 | 150 | 0.0 | 0.0 | 0.00 | 0.00 | 0.00 | 88 | 1020.1 |
| 20260501205358 | 53 | 150 | 0.0 | 0.0 | 0.00 | 0.00 | 0.00 | 88 | 1020.2 |
| 20260501204855 | 53 | 150 | 0.0 | 0.0 | 0.00 | 0.00 | 0.00 | 88 | 1020.1 |
| 20260501204547 | 53 | 150 | 0.0 | 0.0 | 0.00 | 0.00 | 0.00 | 88 | 1020.0 |
| 20260501204353 | 54 | 150 | 0.0 | 0.0 | 0.00 | 0.00 | 0.00 | 88 | 1020.1 |
| 20260501203843 | 54 | 150 | 0.0 | 0.0 | 0.00 | 0.00 | 0.00 | 88 | 1020.1 |
| 20260501203339 | 54 | 150 | 0.0 | 0.0 | 0.00 | 0.00 | 0.00 | 87 | 1020.1 |
| 20260501203305 | 54 | 150 | 0.0 | 0.0 | 0.00 | 0.00 | 0.00 | 87 | 1020.1 |
| 20260501203052 | 54 | 150 | 0.0 | 0.0 | 0.00 | 0.00 | 0.00 | 87 | 1019.9 |
| 20260501202251 | 54 | 150 | 0.0 | 0.0 | 0.00 | 0.00 | 0.00 | 86 | 1020.0 |
| 20260501202009 | 54 | 150 | 0.0 | 0.0 | 0.00 | 0.00 | 0.00 | 86 | 1020.0 |
| 20260501201609 | 54 | 150 | 0.0 | 0.0 | 0.00 | 0.00 | 0.00 | 86 | 1019.9 |
| 20260501201219 | 55 | 150 | 0.0 | 0.0 | 0.00 | 0.00 | 0.00 | 87 | 1020.0 |
| 20260501200917 | 55 | 150 | 0.0 | 0.0 | 0.00 | 0.00 | 0.00 | 87 | 1020.0 |
| 20260501200408 | 55 | 150 | 0.0 | 0.0 | 0.00 | 0.00 | 0.00 | 87 | 1020.0 |
| 20260501200059 | 54 | 150 | 0.0 | 0.0 | 0.00 | 0.00 | 0.00 | 87 | 1019.8 |
| 20260501195645 | 55 | 150 | 0.0 | 0.0 | 0.00 | 0.00 | 0.00 | 86 | 1020.0 |
| 20260501195120 | 55 | 150 | 0.0 | 0.0 | 0.00 | 0.00 | 0.00 | 86 | 1020.0 |
| 20260501194556 | 55 | 150 | 0.0 | 0.0 | 0.00 | 0.00 | 0.00 | 86 | 1019.9 |
| 20260501194540 | 54 | 150 | 0.0 | 0.0 | 0.00 | 0.00 | 0.00 | 86 | 1019.7 |
| 20260501194042 | 55 | 150 | 0.0 | 0.0 | 0.00 | 0.00 | 0.00 | 86 | 1020.0 |
| 20260501193540 | 55 | 150 | 0.0 | 0.0 | 0.00 | 0.00 | 0.00 | 85 | 1019.9 |
| 20260501193042 | 55 | 150 | 0.0 | 0.0 | 0.00 | 0.00 | 0.00 | 85 | 1019.9 |
| 20260501193031 | 54 | 150 | 0.0 | 0.0 | 0.00 | 0.00 | 0.00 | 85 | 1019.8 |
| 20260501192522 | 55 | 150 | 0.0 | 4.3 | 0.00 | 0.00 | 0.00 | 85 | 1019.9 |
| 20260501191959 | 55 | 150 | 0.9 | 4.3 | 0.00 | 0.00 | 0.00 | 85 | 1019.9 |
| 20260501191543 | 55 | 150 | 0.0 | 4.3 | 0.00 | 0.00 | 0.00 | 84 | 1019.7 |
| 20260501191502 | 55 | 151 | 1.7 | 4.3 | 0.00 | 0.00 | 0.00 | 84 | 1019.9 |
| 20260501191206 | 56 | 149 | 1.7 | 4.3 | 0.00 | 0.00 | 0.00 | 84 | 1019.9 |
| 20260501190439 | 56 | 170 | 0.9 | 3.5 | 0.00 | 0.00 | 0.00 | 84 | 1019.8 |
| 20260501190025 | 55 | 170 | 0.0 | 4.3 | 0.00 | 0.00 | 0.00 | 84 | 1019.7 |
| 20260501185936 | 56 | 170 | 0.9 | 4.3 | 0.00 | 0.00 | 0.00 | 84 | 1019.8 |
| 20260501185408 | 56 | 170 | 0.9 | 4.3 | 0.00 | 0.00 | 0.00 | 84 | 1019.7 |
| 20260501184906 | 56 | 198 | 1.7 | 4.3 | 0.00 | 0.00 | 0.00 | 83 | 1019.7 |
| 20260501184508 | 56 | 151 | 0.9 | 4.3 | 0.00 | 0.00 | 0.00 | 83 | 1019.5 |
| 20260501184337 | 56 | 143 | 0.9 | 4.3 | 0.00 | 0.00 | 0.00 | 83 | 1019.6 |
| 20260501183836 | 56 | 159 | 1.7 | 4.3 | 0.00 | 0.00 | 0.00 | 83 | 1019.7 |
| 20260501183316 | 56 | 159 | 1.7 | 5.2 | 0.00 | 0.00 | 0.00 | 83 | 1019.6 |
| 20260501183008 | 56 | 158 | 1.7 | 5.2 | 0.00 | 0.00 | 0.00 | 83 | 1019.5 |
| 20260501182815 | 56 | 148 | 1.7 | 5.2 | 0.00 | 0.00 | 0.00 | 83 | 1019.6 |
| 20260501182313 | 57 | 151 | 1.7 | 4.3 | 0.00 | 0.00 | 0.00 | 83 | 1019.6 |
| 20260501181810 | 57 | 147 | 2.6 | 4.3 | 0.00 | 0.00 | 0.00 | 83 | 1019.6 |
| 20260501181543 | 56 | 146 | 1.7 | 4.3 | 0.00 | 0.00 | 0.00 | 83 | 1019.4 |
| 20260501181303 | 57 | 143 | 1.7 | 7.8 | 0.00 | 0.00 | 0.00 | 83 | 1019.6 |
| 20260501181019 | 57 | 148 | 1.7 | 4.3 | 0.00 | 0.00 | 0.00 | 83 | 1019.6 |
| 20260501180255 | 57 | 180 | 2.6 | 7.8 | 0.00 | 0.00 | 0.00 | 84 | 1019.6 |
| 20260501180007 | 56 | 177 | 2.6 | 7.8 | 0.00 | 0.00 | 0.00 | 83 | 1019.5 |
| 20260501175743 | 57 | 174 | 2.6 | 7.8 | 0.00 | 0.00 | 0.00 | 84 | 1019.6 |
| 20260501175246 | 57 | 171 | 1.7 | 6.1 | 0.00 | 0.00 | 0.00 | 84 | 1019.6 |
| 20260501174713 | 57 | 148 | 1.7 | 6.1 | 0.00 | 0.00 | 0.00 | 84 | 1019.7 |
| 20260501174559 | 56 | 148 | 0.9 | 5.2 | 0.00 | 0.00 | 0.00 | 84 | 1019.6 |
| 20260501174212 | 57 | 145 | 2.6 | 6.1 | 0.00 | 0.00 | 0.00 | 84 | 1019.7 |
| 20260501173647 | 57 | 159 | 2.6 | 7.8 | 0.00 | 0.00 | 0.00 | 84 | 1019.7 |
| 20260501173147 | 57 | 190 | 2.6 | 7.8 | 0.00 | 0.00 | 0.00 | 83 | 1019.7 |
| 20260501173023 | 56 | 149 | 2.6 | 6.1 | 0.00 | 0.00 | 0.00 | 83 | 1019.6 |
| 20260501172646 | 57 | 150 | 2.6 | 7.8 | 0.00 | 0.00 | 0.00 | 83 | 1019.7 |
| 20260501172143 | 57 | 148 | 3.5 | 8.7 | 0.00 | 0.00 | 0.00 | 82 | 1019.7 |
| 20260501171635 | 57 | 162 | 3.5 | 8.7 | 0.00 | 0.00 | 0.00 | 82 | 1019.7 |
| 20260501171545 | 57 | 188 | 2.6 | 8.7 | 0.00 | 0.00 | 0.00 | 82 | 1019.6 |
| 20260501171133 | 58 | 183 | 2.6 | 7.8 | 0.00 | 0.00 | 0.00 | 81 | 1019.8 |
| 20260501170605 | 58 | 202 | 2.6 | 7.0 | 0.00 | 0.00 | 0.00 | 81 | 1019.7 |
| 20260501170331 | 58 | 138 | 3.5 | 9.6 | 0.00 | 0.00 | 0.00 | 80 | 1019.7 |
| 20260501170016 | 58 | 190 | 0.9 | 9.6 | 0.00 | 0.00 | 0.00 | 80 | 1019.6 |
| 20260501165837 | 58 | 179 | 3.5 | 9.6 | 0.00 | 0.00 | 0.00 | 79 | 1019.8 |
| 20260501165527 | 59 | 146 | 3.5 | 9.6 | 0.00 | 0.00 | 0.00 | 78 | 1019.7 |
| 20260501164529 | 59 | 147 | 4.3 | 9.6 | 0.00 | 0.00 | 0.00 | 78 | 1019.8 |
| 20260501164514 | 59 | 140 | 2.6 | 9.6 | 0.00 | 0.00 | 0.00 | 77 | 1019.6 |
| 20260501164024 | 60 | 149 | 4.3 | 8.7 | 0.00 | 0.00 | 0.00 | 77 | 1019.8 |
| 20260501163522 | 60 | 178 | 2.6 | 8.7 | 0.00 | 0.00 | 0.00 | 76 | 1019.7 |
| 20260501163013 | 60 | 166 | 2.6 | 7.8 | 0.00 | 0.00 | 0.00 | 75 | 1019.6 |
| 20260501162954 | 61 | 166 | 2.6 | 8.7 | 0.00 | 0.00 | 0.00 | 75 | 1019.8 |
| 20260501162451 | 61 | 136 | 2.6 | 11.3 | 0.00 | 0.00 | 0.00 | 74 | 1019.9 |
| 20260501161943 | 62 | 207 | 1.7 | 11.3 | 0.00 | 0.00 | 0.00 | 73 | 1019.9 |
| 20260501161523 | 61 | 190 | 0.0 | 11.3 | 0.00 | 0.00 | 0.00 | 74 | 1019.6 |
| 20260501161442 | 62 | 192 | 2.6 | 11.3 | 0.00 | 0.00 | 0.00 | 74 | 1019.8 |